Terminal Aerodrome Forecast
Issued by NWS

Home | Current Version | Previous Version | Text Only | Print | Product List | Glossary On
Versions: 1 2 3 4 5 6 7 8 9
000
FTUS43 KICT 270826 AAA
TAFHUT
TAF AMD
KHUT 270826Z 2708/2806 33014KT P6SM SCT015 BKN070
      TEMPO 2708/2710 BKN014
     FM271400 36010KT P6SM SKC
     FM280000 VRB05KT P6SM SKC=

USA.gov is the U.S. government's official web portal to all federal, state and local government web resources and services.